VOI9158 MMZH-MMQT
Flight info
| Callsign | VOI9158 |
|---|---|
| Flight time | 0h 38m |
| Altitude | 29000 |
| Route | VILTO2B VILTO UJ17 QET |
| Aircraft | A319/M-SDE3FGHIRWY/LB1 |
Departure
| Time | 2026-04-28 07:00 |
|---|---|
| Airport | Ixtapa-Zihuatanejo International Airport (MMZH) |
Arrival
| Time | 2026-04-28 07:38 |
|---|---|
| Airport | Querétaro Intercontinental Airport (MMQT) |
| Time | Latitude | Longitude | Altitude | Speed | Heading |
|---|---|---|---|---|---|
| 2026-04-28 06:46 | 17.60537 | -101.46400 | 19 ft | 0 kts | 359° |
| 2026-04-28 06:50 | 17.60528 | -101.46400 | 19 ft | 4 kts | 355° |
| 2026-04-28 06:50 | 17.60503 | -101.46394 | 19 ft | 4 kts | 329° |
| 2026-04-28 06:51 | 17.60485 | -101.46375 | 19 ft | 4 kts | 286° |
| 2026-04-28 06:51 | 17.60483 | -101.46362 | 19 ft | 1 kts | 271° |
| 2026-04-28 06:51 | 17.60483 | -101.46360 | 19 ft | 0 kts | 271° |
| 2026-04-28 06:54 | 17.60488 | -101.46366 | 21 ft | 1 kts | 323° |
| 2026-04-28 06:54 | 17.60493 | -101.46362 | 19 ft | 1 kts | 25° |
| 2026-04-28 06:55 | 17.60492 | -101.46341 | 19 ft | 5 kts | 106° |
| 2026-04-28 06:55 | 17.60476 | -101.46303 | 19 ft | 7 kts | 127° |
| 2026-04-28 06:55 | 17.60416 | -101.46286 | 19 ft | 11 kts | 179° |
| 2026-04-28 06:55 | 17.60339 | -101.46255 | 21 ft | 13 kts | 128° |
| 2026-04-28 06:56 | 17.60286 | -101.46167 | 22 ft | 15 kts | 122° |
| 2026-04-28 06:56 | 17.60228 | -101.46068 | 22 ft | 17 kts | 120° |
| 2026-04-28 06:56 | 17.60169 | -101.45956 | 23 ft | 19 kts | 113° |
| 2026-04-28 06:56 | 17.60156 | -101.45818 | 22 ft | 20 kts | 91° |
| 2026-04-28 06:57 | 17.60153 | -101.45673 | 24 ft | 20 kts | 92° |
| 2026-04-28 06:57 | 17.60145 | -101.45520 | 24 ft | 22 kts | 91° |
| 2026-04-28 06:57 | 17.60143 | -101.45358 | 24 ft | 23 kts | 91° |
| 2026-04-28 06:57 | 17.60138 | -101.45191 | 26 ft | 23 kts | 92° |
| 2026-04-28 06:58 | 17.60134 | -101.45037 | 28 ft | 18 kts | 91° |
| 2026-04-28 06:58 | 17.60167 | -101.44938 | 27 ft | 12 kts | 54° |
| 2026-04-28 06:58 | 17.60153 | -101.44896 | 29 ft | 8 kts | 182° |
| 2026-04-28 06:58 | 17.60132 | -101.44944 | 30 ft | 9 kts | 272° |
| 2026-04-28 06:59 | 17.60137 | -101.45112 | 26 ft | 49 kts | 271° |
| 2026-04-28 06:59 | 17.60150 | -101.45681 | 24 ft | 107 kts | 271° |
| 2026-04-28 06:59 | 17.60171 | -101.46652 | 42 ft | 155 kts | 270° |
| 2026-04-28 06:59 | 17.60142 | -101.47808 | 549 ft | 161 kts | 265° |
| 2026-04-28 07:00 | 17.60047 | -101.48997 | 1147 ft | 164 kts | 267° |
| 2026-04-28 07:00 | 17.60076 | -101.50193 | 1820 ft | 165 kts | 271° |
| 2026-04-28 07:00 | 17.60147 | -101.51462 | 2185 ft | 185 kts | 272° |
| 2026-04-28 07:00 | 17.60226 | -101.52890 | 2427 ft | 207 kts | 272° |
| 2026-04-28 07:01 | 17.60328 | -101.54419 | 2953 ft | 212 kts | 278° |
| 2026-04-28 07:01 | 17.61057 | -101.55758 | 3504 ft | 219 kts | 321° |
| 2026-04-28 07:01 | 17.62474 | -101.56247 | 4050 ft | 224 kts | 359° |
| 2026-04-28 07:01 | 17.64047 | -101.56147 | 4667 ft | 224 kts | 359° |
| 2026-04-28 07:02 | 17.65586 | -101.56429 | 5244 ft | 225 kts | 344° |
| 2026-04-28 07:02 | 17.67072 | -101.56907 | 5821 ft | 227 kts | 341° |
| 2026-04-28 07:02 | 17.68566 | -101.57459 | 6391 ft | 229 kts | 339° |
| 2026-04-28 07:02 | 17.70064 | -101.58045 | 6953 ft | 231 kts | 338° |
| 2026-04-28 07:03 | 17.71574 | -101.58647 | 7492 ft | 233 kts | 338° |
| 2026-04-28 07:03 | 17.73098 | -101.59253 | 8027 ft | 235 kts | 339° |
| 2026-04-28 07:03 | 17.74635 | -101.59862 | 8526 ft | 237 kts | 339° |
| 2026-04-28 07:03 | 17.76185 | -101.60477 | 9031 ft | 239 kts | 339° |
| 2026-04-28 07:04 | 17.77747 | -101.61096 | 9466 ft | 244 kts | 339° |
| 2026-04-28 07:04 | 17.79369 | -101.61741 | 9806 ft | 252 kts | 339° |
| 2026-04-28 07:04 | 17.81023 | -101.62399 | 10267 ft | 256 kts | 339° |
| 2026-04-28 07:04 | 17.82748 | -101.63084 | 10479 ft | 276 kts | 340° |
| 2026-04-28 07:05 | 17.84621 | -101.63827 | 10691 ft | 300 kts | 340° |
| 2026-04-28 07:05 | 17.86644 | -101.64632 | 10866 ft | 322 kts | 340° |
| 2026-04-28 07:05 | 17.88823 | -101.65465 | 11004 ft | 343 kts | 345° |
| 2026-04-28 07:05 | 17.91202 | -101.65872 | 11429 ft | 350 kts | 360° |
| 2026-04-28 07:06 | 17.93627 | -101.65659 | 12018 ft | 351 kts | 14° |
| 2026-04-28 07:06 | 17.95939 | -101.64843 | 12644 ft | 350 kts | 28° |
| 2026-04-28 07:06 | 17.98008 | -101.63512 | 13280 ft | 350 kts | 36° |
| 2026-04-28 07:06 | 18.00036 | -101.62072 | 13889 ft | 353 kts | 36° |
| 2026-04-28 07:07 | 18.02077 | -101.60614 | 14484 ft | 356 kts | 36° |
| 2026-04-28 07:07 | 18.04140 | -101.59138 | 15048 ft | 360 kts | 36° |
| 2026-04-28 07:07 | 18.06223 | -101.57651 | 15620 ft | 363 kts | 36° |
| 2026-04-28 07:07 | 18.08323 | -101.56152 | 16188 ft | 367 kts | 35° |
| 2026-04-28 07:08 | 18.10446 | -101.54639 | 16737 ft | 370 kts | 35° |
| 2026-04-28 07:08 | 18.12578 | -101.53119 | 17284 ft | 373 kts | 35° |
| 2026-04-28 07:08 | 18.14737 | -101.51578 | 17833 ft | 376 kts | 35° |
| 2026-04-28 07:08 | 18.16911 | -101.50024 | 18361 ft | 379 kts | 35° |
| 2026-04-28 07:09 | 18.19102 | -101.48458 | 18885 ft | 382 kts | 35° |
| 2026-04-28 07:09 | 18.21309 | -101.46881 | 19368 ft | 386 kts | 35° |
| 2026-04-28 07:09 | 18.23544 | -101.45288 | 19867 ft | 389 kts | 34° |
| 2026-04-28 07:09 | 18.25795 | -101.43681 | 20355 ft | 393 kts | 35° |
| 2026-04-28 07:10 | 18.28068 | -101.42057 | 20820 ft | 397 kts | 34° |
| 2026-04-28 07:10 | 18.30363 | -101.40415 | 21274 ft | 400 kts | 34° |
| 2026-04-28 07:10 | 18.32674 | -101.38761 | 21720 ft | 404 kts | 34° |
| 2026-04-28 07:10 | 18.34978 | -101.37109 | 22149 ft | 407 kts | 34° |
| 2026-04-28 07:11 | 18.37330 | -101.35422 | 22571 ft | 411 kts | 34° |
| 2026-04-28 07:11 | 18.39702 | -101.33726 | 22971 ft | 414 kts | 34° |
| 2026-04-28 07:11 | 18.42220 | -101.32231 | 23344 ft | 417 kts | 24° |
| 2026-04-28 07:11 | 18.44968 | -101.31226 | 23723 ft | 420 kts | 13° |
| 2026-04-28 07:12 | 18.47839 | -101.30641 | 24112 ft | 422 kts | 10° |
| 2026-04-28 07:12 | 18.50739 | -101.30086 | 24485 ft | 424 kts | 10° |
| 2026-04-28 07:12 | 18.53647 | -101.29521 | 24851 ft | 426 kts | 10° |
| 2026-04-28 07:12 | 18.56573 | -101.28944 | 25213 ft | 429 kts | 10° |
| 2026-04-28 07:13 | 18.59511 | -101.28364 | 25574 ft | 430 kts | 10° |
| 2026-04-28 07:13 | 18.62462 | -101.27780 | 25926 ft | 432 kts | 10° |
| 2026-04-28 07:13 | 18.65424 | -101.27197 | 26276 ft | 434 kts | 9° |
| 2026-04-28 07:13 | 18.68401 | -101.26614 | 26629 ft | 436 kts | 9° |
| 2026-04-28 07:14 | 18.71393 | -101.26026 | 26983 ft | 438 kts | 9° |
| 2026-04-28 07:14 | 18.74390 | -101.25435 | 27316 ft | 440 kts | 9° |
| 2026-04-28 07:14 | 18.77404 | -101.24841 | 27665 ft | 441 kts | 9° |
| 2026-04-28 07:14 | 18.80430 | -101.24247 | 27996 ft | 443 kts | 9° |
| 2026-04-28 07:15 | 18.83470 | -101.23651 | 28335 ft | 445 kts | 9° |
| 2026-04-28 07:15 | 18.86517 | -101.23052 | 28661 ft | 446 kts | 9° |
| 2026-04-28 07:15 | 18.89582 | -101.22451 | 28994 ft | 448 kts | 9° |
| 2026-04-28 07:15 | 18.92658 | -101.21851 | 29220 ft | 450 kts | 8° |
| 2026-04-28 07:16 | 18.95701 | -101.21256 | 29265 ft | 438 kts | 8° |
| 2026-04-28 07:16 | 19.01631 | -101.20091 | 29264 ft | 431 kts | 8° |
| 2026-04-28 07:17 | 19.07520 | -101.18931 | 29269 ft | 430 kts | 8° |
| 2026-04-28 07:17 | 19.13413 | -101.17771 | 29275 ft | 430 kts | 8° |
| 2026-04-28 07:18 | 19.19262 | -101.16624 | 29275 ft | 430 kts | 8° |
| 2026-04-28 07:18 | 19.25145 | -101.15455 | 29272 ft | 430 kts | 8° |
| 2026-04-28 07:19 | 19.31029 | -101.14280 | 29268 ft | 430 kts | 8° |
| 2026-04-28 07:19 | 19.36914 | -101.13113 | 29266 ft | 430 kts | 8° |
| 2026-04-28 07:20 | 19.42788 | -101.11958 | 29269 ft | 430 kts | 8° |
| 2026-04-28 07:20 | 19.48669 | -101.10802 | 29275 ft | 430 kts | 8° |
| 2026-04-28 07:21 | 19.54552 | -101.09634 | 29279 ft | 430 kts | 8° |
| 2026-04-28 07:21 | 19.60427 | -101.08460 | 29276 ft | 430 kts | 8° |
| 2026-04-28 07:22 | 19.69245 | -101.06707 | 29274 ft | 430 kts | 8° |
| 2026-04-28 07:22 | 19.75125 | -101.05541 | 29273 ft | 429 kts | 8° |
| 2026-04-28 07:23 | 19.80984 | -101.04270 | 29271 ft | 431 kts | 15° |
| 2026-04-28 07:23 | 19.86327 | -101.01358 | 29270 ft | 436 kts | 36° |
| 2026-04-28 07:24 | 19.90702 | -100.96848 | 29269 ft | 438 kts | 44° |
| 2026-04-28 07:24 | 19.92839 | -100.94527 | 28710 ft | 443 kts | 44° |
| 2026-04-28 07:24 | 19.95014 | -100.92175 | 27136 ft | 461 kts | 44° |
| 2026-04-28 07:25 | 19.97308 | -100.89694 | 25246 ft | 481 kts | 44° |
| 2026-04-28 07:25 | 19.99695 | -100.87109 | 23826 ft | 491 kts | 45° |
| 2026-04-28 07:25 | 20.02068 | -100.84536 | 22956 ft | 483 kts | 45° |
| 2026-04-28 07:25 | 20.04430 | -100.81974 | 22057 ft | 476 kts | 45° |
| 2026-04-28 07:26 | 20.06703 | -100.79508 | 21212 ft | 469 kts | 45° |
| 2026-04-28 07:26 | 20.08968 | -100.77049 | 20363 ft | 462 kts | 45° |
| 2026-04-28 07:26 | 20.11191 | -100.74631 | 19530 ft | 455 kts | 45° |
| 2026-04-28 07:26 | 20.13384 | -100.72240 | 18684 ft | 448 kts | 45° |
| 2026-04-28 07:27 | 20.15541 | -100.69887 | 17862 ft | 440 kts | 45° |
| 2026-04-28 07:27 | 20.17666 | -100.67575 | 17020 ft | 433 kts | 46° |
| 2026-04-28 07:27 | 20.19763 | -100.65295 | 16147 ft | 428 kts | 46° |
| 2026-04-28 07:27 | 20.21828 | -100.63046 | 15285 ft | 424 kts | 46° |
| 2026-04-28 07:28 | 20.23881 | -100.60808 | 14445 ft | 420 kts | 46° |
| 2026-04-28 07:28 | 20.25909 | -100.58594 | 13641 ft | 416 kts | 47° |
| 2026-04-28 07:28 | 20.27919 | -100.56398 | 12828 ft | 412 kts | 47° |
| 2026-04-28 07:28 | 20.29912 | -100.54220 | 11998 ft | 409 kts | 47° |
| 2026-04-28 07:29 | 20.31225 | -100.52786 | 11476 ft | 405 kts | 47° |
| 2026-04-28 07:29 | 20.33162 | -100.50681 | 11120 ft | 389 kts | 47° |
| 2026-04-28 07:29 | 20.35007 | -100.48677 | 10974 ft | 368 kts | 47° |
| 2026-04-28 07:29 | 20.36743 | -100.46790 | 11006 ft | 345 kts | 47° |
| 2026-04-28 07:30 | 20.38371 | -100.45008 | 11007 ft | 327 kts | 47° |
| 2026-04-28 07:30 | 20.39913 | -100.43315 | 11009 ft | 310 kts | 47° |
| 2026-04-28 07:30 | 20.41373 | -100.41710 | 11010 ft | 294 kts | 47° |
| 2026-04-28 07:30 | 20.42767 | -100.40180 | 11010 ft | 281 kts | 47° |
| 2026-04-28 07:31 | 20.44099 | -100.38722 | 11009 ft | 268 kts | 46° |
| 2026-04-28 07:31 | 20.45556 | -100.37569 | 11008 ft | 256 kts | 29° |
| 2026-04-28 07:31 | 20.47215 | -100.36934 | 11010 ft | 253 kts | 12° |
| 2026-04-28 07:31 | 20.48979 | -100.36815 | 10866 ft | 258 kts | 356° |
| 2026-04-28 07:32 | 20.50727 | -100.37247 | 10409 ft | 258 kts | 338° |
| 2026-04-28 07:32 | 20.52303 | -100.38134 | 9954 ft | 255 kts | 332° |
| 2026-04-28 07:32 | 20.53885 | -100.38960 | 9500 ft | 250 kts | 337° |
| 2026-04-28 07:32 | 20.55471 | -100.39602 | 9299 ft | 235 kts | 342° |
| 2026-04-28 07:33 | 20.57012 | -100.40075 | 9304 ft | 227 kts | 347° |
| 2026-04-28 07:33 | 20.58549 | -100.40408 | 9325 ft | 224 kts | 351° |
| 2026-04-28 07:33 | 20.60097 | -100.40482 | 9309 ft | 222 kts | 7° |
| 2026-04-28 07:33 | 20.61590 | -100.40095 | 9312 ft | 221 kts | 23° |
| 2026-04-28 07:34 | 20.62916 | -100.39277 | 9311 ft | 220 kts | 39° |
| 2026-04-28 07:34 | 20.63971 | -100.38106 | 9307 ft | 219 kts | 57° |
| 2026-04-28 07:34 | 20.64577 | -100.36632 | 9316 ft | 218 kts | 79° |
| 2026-04-28 07:34 | 20.64605 | -100.35029 | 9269 ft | 218 kts | 99° |
| 2026-04-28 07:35 | 20.64320 | -100.33472 | 8953 ft | 209 kts | 101° |
| 2026-04-28 07:35 | 20.64054 | -100.32018 | 8605 ft | 188 kts | 101° |
| 2026-04-28 07:35 | 20.63815 | -100.30712 | 8254 ft | 172 kts | 101° |
| 2026-04-28 07:35 | 20.63598 | -100.29522 | 8114 ft | 157 kts | 101° |
| 2026-04-28 07:36 | 20.63391 | -100.28392 | 8114 ft | 154 kts | 100° |
| 2026-04-28 07:36 | 20.63188 | -100.27274 | 7929 ft | 153 kts | 100° |
| 2026-04-28 07:36 | 20.62987 | -100.26169 | 7669 ft | 151 kts | 101° |
| 2026-04-28 07:36 | 20.62824 | -100.25069 | 7406 ft | 149 kts | 95° |
| 2026-04-28 07:37 | 20.62730 | -100.23985 | 7139 ft | 143 kts | 98° |
| 2026-04-28 07:37 | 20.62565 | -100.22952 | 6874 ft | 141 kts | 102° |
| 2026-04-28 07:37 | 20.62365 | -100.21927 | 6655 ft | 142 kts | 100° |
| 2026-04-28 07:37 | 20.62194 | -100.20891 | 6467 ft | 141 kts | 102° |
| 2026-04-28 07:38 | 20.61987 | -100.19875 | 6283 ft | 135 kts | 103° |
| 2026-04-28 07:38 | 20.61819 | -100.19039 | 6281 ft | 91 kts | 99° |
| 2026-04-28 07:38 | 20.61729 | -100.18490 | 6286 ft | 55 kts | 101° |
| 2026-04-28 07:38 | 20.61683 | -100.18238 | 6286 ft | 23 kts | 101° |
| 2026-04-28 07:39 | 20.61659 | -100.18109 | 6288 ft | 0 kts | 102° |
| 2026-04-28 07:39 | 20.61657 | -100.18101 | 6288 ft | 3 kts | 102° |
| 2026-04-28 07:39 | 20.61649 | -100.18060 | 6289 ft | 9 kts | 102° |
| 2026-04-28 07:39 | 20.61642 | -100.18027 | 6289 ft | 2 kts | 102° |
| 2026-04-28 07:40 | 20.61659 | -100.17977 | 6290 ft | 12 kts | 62° |
| 2026-04-28 07:40 | 20.61698 | -100.17888 | 6293 ft | 14 kts | 72° |
| 2026-04-28 07:40 | 20.61726 | -100.17791 | 6295 ft | 12 kts | 73° |
| 2026-04-28 07:40 | 20.61728 | -100.17782 | 6295 ft | 0 kts | 73° |
| 2026-04-28 07:41 | 20.61729 | -100.17781 | 6295 ft | 0 kts | 73° |
| 2026-04-28 07:41 | 20.61729 | -100.17778 | 6295 ft | 1 kts | 73° |
| 2026-04-28 07:42 | 20.61730 | -100.17777 | 6295 ft | 0 kts | 73° |
| 2026-04-28 07:42 | 20.61733 | -100.17770 | 6295 ft | 3 kts | 57° |
| 2026-04-28 07:42 | 20.61762 | -100.17781 | 6296 ft | 0 kts | 301° |
| 2026-04-28 07:43 | 20.61763 | -100.17796 | 6296 ft | 5 kts | 274° |
| 2026-04-28 07:43 | 20.61769 | -100.17843 | 6296 ft | 8 kts | 281° |
| 2026-04-28 07:43 | 20.61781 | -100.17907 | 6296 ft | 10 kts | 281° |
| 2026-04-28 07:43 | 20.61793 | -100.17968 | 6295 ft | 0 kts | 282° |
| 2026-04-28 07:45 | 20.61794 | -100.17976 | 6295 ft | 3 kts | 282° |
| 2026-04-28 07:45 | 20.61804 | -100.18023 | 6295 ft | 10 kts | 282° |
| 2026-04-28 07:45 | 20.61822 | -100.18120 | 6295 ft | 16 kts | 281° |
| 2026-04-28 07:46 | 20.61844 | -100.18243 | 6295 ft | 18 kts | 281° |
| 2026-04-28 07:46 | 20.61865 | -100.18361 | 6294 ft | 15 kts | 281° |
| 2026-04-28 07:46 | 20.61879 | -100.18443 | 6294 ft | 9 kts | 280° |
| 2026-04-28 07:46 | 20.61892 | -100.18517 | 6294 ft | 11 kts | 280° |
| 2026-04-28 07:47 | 20.61908 | -100.18600 | 6293 ft | 9 kts | 282° |
| 2026-04-28 07:47 | 20.61910 | -100.18610 | 6293 ft | 2 kts | 282° |
| 2026-04-28 07:47 | 20.61914 | -100.18628 | 6293 ft | 3 kts | 282° |
| 2026-04-28 07:47 | 20.61919 | -100.18655 | 6293 ft | 4 kts | 282° |
| 2026-04-28 07:48 | 20.61921 | -100.18662 | 6293 ft | 0 kts | 282° |
| 2026-04-28 07:48 | 20.61921 | -100.18663 | 6293 ft | 0 kts | 282° |
| 2026-04-28 07:48 | 20.61921 | -100.18664 | 6293 ft | 0 kts | 282° |
| 2026-04-28 07:49 | 20.61922 | -100.18668 | 6293 ft | 2 kts | 282° |
| 2026-04-28 07:49 | 20.61930 | -100.18690 | 6293 ft | 4 kts | 308° |
| 2026-04-28 07:50 | 20.61962 | -100.18698 | 6294 ft | 6 kts | 0° |
| 2026-04-28 07:50 | 20.62017 | -100.18687 | 6296 ft | 9 kts | 11° |
| 2026-04-28 07:50 | 20.62076 | -100.18693 | 6296 ft | 9 kts | 322° |
| 2026-04-28 07:50 | 20.62118 | -100.18745 | 6297 ft | 9 kts | 333° |
| 2026-04-28 07:51 | 20.62180 | -100.18736 | 6297 ft | 8 kts | 11° |
| 2026-04-28 07:51 | 20.62194 | -100.18734 | 6297 ft | 0 kts | 10° |